createdAt,value
2024-04-30T08:05:22.758Z,47.46
2024-04-30T08:07:50.186Z,47.34
2024-04-30T08:10:17.469Z,48.05
2024-04-30T08:12:44.595Z,46.77
2024-04-30T08:15:11.735Z,45.75
2024-04-30T08:17:39.081Z,46.82
2024-04-30T08:20:07.085Z,45.24
2024-04-30T08:22:34.351Z,44.39
2024-04-30T08:25:01.494Z,43.23
2024-04-30T08:27:28.642Z,44.27
2024-04-30T08:29:55.738Z,44.83
2024-04-30T08:32:23.360Z,43.87
2024-04-30T08:34:50.491Z,44.23
2024-04-30T08:37:17.692Z,43.14
2024-04-30T08:39:44.927Z,43.68
2024-04-30T08:42:12.056Z,44.97
2024-04-30T08:44:39.188Z,44.48
2024-04-30T08:47:06.502Z,44.93
2024-04-30T08:49:42.629Z,44.41
2024-04-30T08:52:14.382Z,44.48
2024-04-30T08:54:42.379Z,44.18
2024-04-30T08:57:09.475Z,43.47
2024-04-30T08:59:38.526Z,43.46
2024-04-30T09:02:05.883Z,42.78
2024-04-30T09:04:33.185Z,42.90
2024-04-30T09:07:00.326Z,42.70
2024-04-30T09:09:27.550Z,43.47
2024-04-30T09:11:54.854Z,43.62
2024-04-30T09:14:22.030Z,43.81
2024-04-30T09:16:50.135Z,44.77
2024-04-30T09:19:28.271Z,44.12
2024-04-30T09:22:05.765Z,44.13
2024-04-30T09:24:33.501Z,43.28
2024-04-30T09:27:00.884Z,42.78
2024-04-30T09:29:35.372Z,42.36
2024-04-30T09:32:03.004Z,41.57
2024-04-30T09:34:42.748Z,41.72
2024-04-30T09:37:23.330Z,41.51
2024-04-30T09:39:58.150Z,40.89
2024-04-30T09:42:26.992Z,40.48
2024-04-30T09:44:57.210Z,41.28
2024-04-30T09:47:25.105Z,41.39
2024-04-30T09:49:53.628Z,40.74
2024-04-30T09:52:21.280Z,39.32
2024-04-30T09:54:48.467Z,39.22
2024-04-30T09:57:15.981Z,38.95
2024-04-30T09:59:43.160Z,39.03
2024-04-30T10:02:12.003Z,39.38
2024-04-30T10:04:39.217Z,38.76
2024-04-30T10:07:06.502Z,37.83
2024-04-30T10:09:33.618Z,38.01
2024-04-30T10:12:00.719Z,37.34
2024-04-30T10:14:31.743Z,37.48
2024-04-30T10:17:00.243Z,37.23
2024-04-30T10:19:27.916Z,37.14
2024-04-30T10:21:55.070Z,36.31
2024-04-30T10:24:22.949Z,36.59
2024-04-30T10:26:50.923Z,36.69
2024-04-30T10:41:02.697Z,35.30
2024-04-30T10:43:29.796Z,35.26
2024-04-30T10:46:15.989Z,35.40
2024-04-30T10:48:49.922Z,34.64
2024-04-30T10:51:17.820Z,35.31
2024-04-30T10:53:44.555Z,36.49
2024-04-30T10:56:12.617Z,37.03
2024-04-30T10:58:50.743Z,36.72
2024-04-30T11:01:24.296Z,35.93
2024-04-30T11:04:11.163Z,36.22
2024-04-30T11:20:20.395Z,35.43
2024-04-30T11:22:47.644Z,35.28
2024-04-30T11:25:14.807Z,35.80
2024-04-30T11:27:41.997Z,36.40
2024-04-30T11:30:09.539Z,35.62
2024-04-30T11:32:36.774Z,35.58
2024-04-30T11:35:04.442Z,35.31
2024-04-30T11:37:31.711Z,35.18
2024-04-30T11:39:58.903Z,35.54
2024-04-30T11:42:31.235Z,35.72
2024-04-30T11:45:03.736Z,35.64
2024-04-30T11:47:31.508Z,36.41
2024-04-30T11:49:58.731Z,35.84
2024-04-30T11:52:26.069Z,35.46
2024-04-30T11:54:53.225Z,35.39
2024-04-30T11:57:20.347Z,35.32
2024-04-30T11:59:47.454Z,35.27
2024-04-30T12:02:14.892Z,35.58
2024-04-30T12:04:42.376Z,35.54
2024-04-30T12:07:09.927Z,34.68
2024-04-30T12:09:37.217Z,34.21
2024-04-30T12:12:04.754Z,34.07
2024-04-30T12:14:31.965Z,34.21
2024-04-30T12:16:59.377Z,33.89
2024-04-30T12:19:26.563Z,33.78
2024-04-30T12:21:53.661Z,33.33
2024-04-30T12:24:21.051Z,33.33
2024-04-30T12:26:48.204Z,33.51
2024-04-30T12:29:15.314Z,33.26
2024-04-30T12:31:42.752Z,33.67
2024-04-30T12:34:10.291Z,33.38
2024-04-30T12:36:38.439Z,33.40
2024-04-30T12:39:05.609Z,32.55
2024-04-30T12:41:38.061Z,32.76
2024-04-30T12:44:05.735Z,32.88
2024-04-30T12:46:33.224Z,32.76
2024-04-30T12:49:00.429Z,33.10
2024-04-30T12:51:27.803Z,33.47
2024-04-30T12:53:56.218Z,33.20
2024-04-30T12:56:23.628Z,33.30
2024-04-30T12:58:50.890Z,32.80
2024-04-30T13:01:20.635Z,32.02
2024-04-30T13:03:51.640Z,31.52
2024-04-30T13:06:19.026Z,32.11
2024-04-30T13:08:46.285Z,31.62
2024-04-30T13:11:14.165Z,31.71
2024-04-30T13:13:41.550Z,32.47
2024-04-30T13:16:09.832Z,32.28
2024-04-30T13:18:37.032Z,32.31
2024-04-30T13:21:04.460Z,32.27
2024-04-30T13:23:35.440Z,32.57
2024-04-30T13:26:02.578Z,32.80
2024-04-30T13:28:30.031Z,32.22
2024-04-30T13:30:57.345Z,31.98
2024-04-30T13:33:24.749Z,31.98
2024-04-30T13:35:52.227Z,31.75
2024-04-30T13:38:19.354Z,31.42
2024-04-30T13:40:46.645Z,31.80
2024-04-30T13:43:14.086Z,31.69
2024-04-30T13:45:41.315Z,30.32
2024-04-30T13:48:08.628Z,30.21
2024-04-30T13:50:35.929Z,29.64
2024-04-30T13:53:03.290Z,28.96
2024-04-30T13:55:32.891Z,28.28
2024-04-30T13:58:01.193Z,27.83
2024-04-30T14:00:28.312Z,28.22
2024-04-30T14:02:55.593Z,28.47
2024-04-30T14:05:25.234Z,28.61
2024-04-30T14:07:53.730Z,28.01
2024-04-30T14:10:20.965Z,28.06
2024-04-30T14:12:48.849Z,27.73
2024-04-30T14:15:16.538Z,27.55
2024-04-30T14:17:43.949Z,27.31
2024-04-30T14:20:11.059Z,27.15
2024-04-30T14:22:38.357Z,27.32
2024-04-30T14:25:06.247Z,27.47
2024-04-30T14:27:33.780Z,27.48
2024-04-30T14:30:01.105Z,27.13
2024-04-30T14:32:28.707Z,26.82
2024-04-30T14:34:56.141Z,26.75
2024-04-30T14:37:23.417Z,27.20
2024-04-30T14:39:52.362Z,26.50
2024-04-30T14:42:19.556Z,26.29
2024-04-30T14:44:48.955Z,25.99
2024-04-30T14:47:16.203Z,26.15
2024-04-30T14:49:43.559Z,26.12
2024-04-30T14:52:10.739Z,25.70
2024-04-30T14:54:40.362Z,25.66
2024-04-30T14:57:07.471Z,25.58
2024-04-30T14:59:34.618Z,25.74
2024-04-30T15:02:01.971Z,26.24
2024-04-30T15:04:29.358Z,26.06
2024-04-30T15:06:56.612Z,25.63
2024-04-30T15:09:23.707Z,25.21
2024-04-30T15:11:50.976Z,25.20
2024-04-30T15:14:18.114Z,25.36
2024-04-30T15:16:45.430Z,25.22
2024-04-30T15:19:12.849Z,24.51
2024-04-30T15:21:44.000Z,25.17
2024-04-30T15:24:11.133Z,25.68
2024-04-30T15:26:38.949Z,25.29
2024-04-30T15:29:06.233Z,24.19
2024-04-30T15:31:33.931Z,24.24
2024-04-30T15:34:01.375Z,24.17
2024-04-30T15:36:28.457Z,24.03
2024-04-30T15:38:55.620Z,24.19
2024-04-30T15:41:23.173Z,24.62
2024-04-30T15:43:50.463Z,24.22
2024-04-30T15:46:17.718Z,23.89
2024-04-30T15:48:45.545Z,23.45
2024-04-30T15:51:13.966Z,23.57
2024-04-30T15:53:41.118Z,23.86
2024-04-30T15:56:19.478Z,23.85
2024-04-30T15:58:48.086Z,23.41
2024-04-30T16:01:15.502Z,23.00
2024-04-30T16:03:42.753Z,22.85
2024-04-30T16:06:10.044Z,23.24
2024-04-30T16:08:37.423Z,24.13
2024-04-30T16:11:09.684Z,23.82
2024-04-30T16:13:39.363Z,23.66
2024-04-30T16:16:12.551Z,23.48
2024-04-30T16:18:46.709Z,24.25
2024-04-30T16:21:14.659Z,24.27
2024-04-30T16:23:41.928Z,24.69
2024-04-30T16:26:09.296Z,24.17
2024-04-30T16:28:36.626Z,23.92
2024-04-30T16:31:04.297Z,24.97
2024-04-30T16:33:32.015Z,26.33
2024-04-30T16:35:59.404Z,26.73
2024-04-30T16:38:26.732Z,27.62
2024-04-30T16:40:55.528Z,28.78
2024-04-30T16:43:22.698Z,29.97
2024-04-30T16:45:50.285Z,31.67
2024-04-30T16:48:17.711Z,33.16
2024-04-30T16:50:45.048Z,34.86
2024-04-30T16:53:12.231Z,36.96
2024-04-30T16:55:39.334Z,38.50
2024-04-30T16:58:06.446Z,39.66
2024-04-30T17:00:33.706Z,40.84
2024-04-30T17:03:01.081Z,42.39
2024-04-30T17:05:28.274Z,44.58
2024-04-30T17:07:55.442Z,46.50
2024-04-30T17:10:22.557Z,48.02
2024-04-30T17:12:49.962Z,49.61
2024-04-30T17:15:17.295Z,51.51
2024-04-30T17:17:44.634Z,53.32
2024-04-30T17:20:11.902Z,53.87
2024-04-30T17:22:39.350Z,54.84
2024-04-30T17:25:07.573Z,56.90
2024-04-30T17:27:34.883Z,59.14
2024-04-30T17:30:02.107Z,61.27
2024-04-30T17:32:29.364Z,63.71
2024-04-30T17:34:56.639Z,64.36
2024-04-30T17:37:23.821Z,64.46
2024-04-30T17:39:51.079Z,65.82
2024-04-30T17:42:18.378Z,67.71
2024-04-30T17:44:45.542Z,70.94
2024-04-30T17:47:12.736Z,72.74
2024-04-30T17:49:40.032Z,74.44
2024-04-30T17:52:07.126Z,75.71
2024-04-30T17:54:34.693Z,77.66
2024-04-30T17:57:02.142Z,81.80
2024-04-30T17:59:29.422Z,87.65
2024-04-30T18:01:56.885Z,92.23
2024-04-30T18:04:24.112Z,95.69
2024-04-30T18:06:51.364Z,99.26
2024-04-30T18:09:18.581Z,100.00
2024-04-30T18:11:45.760Z,100.00
2024-04-30T18:14:12.982Z,100.00
2024-04-30T18:16:40.172Z,100.00
2024-04-30T18:19:08.510Z,100.00
2024-04-30T18:21:37.412Z,100.00
2024-04-30T18:24:06.761Z,100.00
2024-04-30T18:26:40.760Z,100.00
2024-04-30T18:29:08.075Z,100.00
2024-04-30T18:31:35.331Z,100.00
2024-04-30T18:34:03.089Z,100.00
2024-04-30T18:36:30.396Z,100.00
2024-04-30T18:38:57.799Z,100.00
2024-04-30T18:41:30.936Z,100.00
2024-04-30T18:43:58.781Z,100.00
2024-04-30T18:46:25.956Z,100.00
2024-04-30T18:48:53.354Z,100.00
2024-04-30T18:51:20.952Z,100.00
2024-04-30T18:53:49.244Z,100.00
2024-04-30T18:56:17.553Z,100.00
2024-04-30T18:58:45.861Z,100.00
2024-04-30T19:01:13.465Z,100.00
2024-04-30T19:03:40.886Z,100.00
2024-04-30T19:06:09.065Z,100.00
2024-04-30T19:08:36.316Z,100.00
2024-04-30T19:11:04.444Z,100.00
2024-04-30T19:13:31.837Z,100.00
2024-04-30T19:16:02.885Z,100.00
2024-04-30T19:18:30.485Z,100.00
2024-04-30T19:20:57.943Z,100.00
2024-04-30T19:23:29.213Z,100.00
2024-04-30T19:25:56.605Z,100.00
2024-04-30T19:28:23.806Z,100.00
2024-04-30T19:30:52.606Z,100.00
2024-04-30T19:33:19.942Z,100.00
2024-04-30T19:35:50.469Z,100.00
2024-04-30T19:38:18.029Z,100.00
2024-04-30T19:40:45.992Z,100.00
2024-04-30T19:43:14.104Z,100.00
2024-04-30T19:45:41.760Z,100.00
2024-04-30T19:48:12.982Z,100.00
2024-04-30T19:50:42.905Z,100.00
2024-04-30T19:53:10.009Z,100.00
2024-04-30T19:55:37.194Z,100.00
2024-04-30T19:58:04.458Z,100.00
2024-04-30T20:00:31.929Z,100.00
2024-04-30T20:02:59.237Z,100.00
2024-04-30T20:05:26.473Z,100.00
2024-04-30T20:07:53.639Z,100.00
2024-04-30T20:10:21.228Z,100.00
2024-04-30T20:12:48.734Z,100.00
2024-04-30T20:15:16.224Z,100.00
2024-04-30T20:17:43.350Z,100.00
2024-04-30T20:20:10.621Z,100.00
2024-04-30T20:22:38.048Z,100.00
2024-04-30T20:25:05.957Z,100.00
2024-04-30T20:27:33.118Z,100.00
2024-04-30T20:30:00.260Z,100.00
2024-04-30T20:32:27.442Z,100.00
2024-04-30T20:34:54.575Z,100.00
2024-04-30T20:37:21.656Z,100.00
2024-04-30T20:39:48.833Z,100.00
2024-04-30T20:42:17.718Z,100.00
2024-04-30T20:44:46.064Z,100.00
2024-04-30T20:47:13.163Z,100.00
2024-04-30T20:49:40.340Z,100.00
2024-04-30T20:52:07.539Z,100.00
2024-04-30T20:54:34.836Z,100.00
2024-04-30T20:57:02.059Z,100.00
2024-04-30T20:59:29.203Z,100.00
2024-04-30T21:01:56.524Z,100.00
2024-04-30T21:04:23.944Z,100.00
2024-04-30T21:06:51.207Z,100.00
2024-04-30T21:09:18.392Z,100.00
2024-04-30T21:11:46.751Z,100.00
2024-04-30T21:14:13.875Z,100.00
2024-04-30T21:16:41.218Z,100.00
2024-04-30T21:19:11.421Z,100.00
2024-04-30T21:21:41.802Z,100.00
2024-04-30T21:24:12.420Z,100.00
2024-04-30T21:26:42.932Z,100.00
2024-04-30T21:29:10.330Z,100.00
2024-04-30T21:31:37.408Z,100.00
2024-04-30T21:34:04.499Z,100.00
2024-04-30T21:36:32.056Z,100.00
2024-04-30T21:38:59.227Z,100.00
2024-04-30T21:41:26.453Z,100.00
2024-04-30T21:43:53.617Z,100.00
2024-04-30T21:46:20.719Z,100.00
2024-04-30T21:48:47.878Z,100.00
2024-04-30T21:51:18.940Z,100.00
2024-04-30T21:53:46.068Z,100.00
2024-04-30T21:56:13.191Z,100.00
2024-04-30T21:58:40.364Z,100.00
2024-04-30T22:01:10.740Z,100.00
2024-04-30T22:03:40.061Z,100.00
2024-04-30T22:06:07.602Z,100.00
2024-04-30T22:08:35.798Z,100.00
2024-04-30T22:11:03.211Z,100.00
2024-04-30T22:13:30.394Z,100.00
2024-04-30T22:15:59.377Z,100.00
2024-04-30T22:18:27.198Z,100.00
2024-04-30T22:20:54.406Z,100.00
2024-04-30T22:23:21.774Z,100.00
2024-04-30T22:25:48.887Z,100.00
2024-04-30T22:28:16.084Z,100.00
2024-04-30T22:30:43.236Z,100.00
2024-04-30T22:33:10.556Z,100.00
2024-04-30T22:35:37.778Z,100.00
2024-04-30T22:38:05.002Z,100.00
2024-04-30T22:40:32.149Z,100.00
2024-04-30T22:42:59.342Z,100.00
2024-04-30T22:45:26.487Z,100.00
2024-04-30T22:47:53.675Z,100.00
2024-04-30T22:50:20.866Z,100.00
2024-04-30T22:52:48.029Z,100.00
2024-04-30T22:55:15.148Z,100.00
2024-04-30T22:57:42.320Z,100.00
2024-04-30T23:00:09.879Z,100.00
2024-04-30T23:02:37.311Z,100.00
2024-04-30T23:05:08.954Z,100.00
2024-04-30T23:07:36.307Z,100.00
2024-04-30T23:10:04.493Z,100.00
2024-04-30T23:12:32.264Z,100.00
2024-04-30T23:14:59.610Z,100.00
2024-04-30T23:17:26.771Z,100.00
2024-04-30T23:19:53.876Z,100.00
2024-04-30T23:22:24.085Z,100.00
2024-04-30T23:24:51.291Z,100.00
2024-04-30T23:27:21.550Z,100.00
2024-04-30T23:29:48.878Z,100.00
2024-04-30T23:32:16.289Z,100.00
2024-04-30T23:34:43.416Z,100.00
2024-04-30T23:37:10.634Z,100.00
2024-04-30T23:39:37.893Z,100.00
2024-04-30T23:42:08.683Z,100.00
2024-04-30T23:44:36.396Z,100.00
2024-04-30T23:47:03.952Z,100.00
2024-04-30T23:49:31.297Z,100.00
2024-04-30T23:51:58.893Z,100.00
2024-04-30T23:54:27.226Z,100.00
2024-04-30T23:56:54.588Z,100.00
2024-04-30T23:59:22.505Z,100.00
